Pagrindinis puslapis
METAR-TAF:

METAR-TAF

Oro uostai :

Upsala, Švedija

platuma: 59-53N, ilguma: 017-36E, Aukštis: 21 m

Dabartinis oras

Ataskaita buvo paskelbta 37 minutes, ne 19:50 UTC
Vėjas 3 kt iš Pietų
Temperatūra 12°C
Drėgmė 88%
Slėgis 1001 hPa
Matomumas 10 km arba daugiau

METAR: ESCM 231950Z AUTO 17003KT 9999 NCD 12/10 Q1001

Laikas: 22:27 (20:27 UTC)

Prognozė

Ataskaita buvo paskelbta 9 valandos ir 2 minutes, ne 11:25 UTC
Prognozė galioja nuo 23 metu 12 UTC su 23 metu 14 UTC
Vėjas 12 kt iš Pietų/Pietvakarių
Matomumas 10 km arba daugiau
nėra debesų žemiau 1500 m ir nėra kamuolinių lietaus debesų

TAF: ESCM 231125Z 2312/2314 20012KT CAVOK RMK MIL

Orai ataskaitas ir orų prognozės (METAR, TAF).

turimą stotys yra geltonos ir raudonos taškus žemėlapyje.

Perkelti pele per norėdami pamatyti stoties vardą.

Tada spustelėkite, norėdami matyti oro stebėjimo ir prognozės.

Norėdami pakeisti žemėlapį: spustelėkite ant žalios mygtukų su juodo kryžiaus žemyn,; žalią mygtuką su brūkšneliu, jei norite nutolinti; arba žalių rodyklių gretimoms žemėlapius.


METAR-TAF: